This is the latest recevied weather packets stored in our database for station/object Aldingen. If no packets are shown the sender has not sent any weather packets the latest 10 day(s).
| Time | Temp. | Humidity | Pressure | Rain* | Wind** | Luminosity | Snow |
|---|---|---|---|---|---|---|---|
| 1777579329 | 10° C | 30% | 1024.1 hPa | 0 mm | - | - | - |
| 1777577529 | 11.11° C | 27% | 1023.8 hPa | 0 mm | - | - | - |
| 1777575735 | 11.11° C | 27% | 1023.7 hPa | 0 mm | - | - | - |
| 1777573930 | 12.22° C | 25% | 1023.4 hPa | 0 mm | - | - | - |
| 1777572132 | 12.78° C | 26% | 1023.1 hPa | 0 mm | - | - | - |
| 1777570330 | 13.89° C | 26% | 1022.7 hPa | 0 mm | - | - | - |
| 1777568531 | 14.44° C | 23% | 1022.8 hPa | 0 mm | - | - | - |
| 1777566730 | 15° C | 23% | 1022.8 hPa | 0 mm | - | - | - |
| 1777564930 | 15° C | 23% | 1022.4 hPa | 0 mm | - | - | - |
| 1777563132 | 15.56° C | 23% | 1022.4 hPa | 0 mm | - | - | - |
| 1777559530 | 15.56° C | 20% | 1022.5 hPa | 0 mm | - | - | - |
| 1777557730 | 15.56° C | 26% | 1022.4 hPa | 0 mm | - | - | - |
| 1777555931 | 15.56° C | 26% | 1022.5 hPa | 0 mm | - | - | - |
| 1777554130 | 15.56° C | 29% | 1022.4 hPa | 0 mm | - | - | - |
| 1777552332 | 15° C | 28% | 1022.6 hPa | 0 mm | - | - | - |
| 1777550530 | 15° C | 34% | 1022.7 hPa | 0 mm | - | - | - |
| 1777548730 | 15° C | 33% | 1022.8 hPa | 0 mm | - | - | - |
| 1777546931 | 14.44° C | 31% | 1022.8 hPa | 0 mm | - | - | - |
| 1777545130 | 13.33° C | 33% | 1023 hPa | 0 mm | - | - | - |
| 1777543330 | 12.78° C | 36% | 1022.8 hPa | 0 mm | - | - | - |
| 1777541531 | 12.78° C | 33% | 1022.8 hPa | 0 mm | - | - | - |
| 1777539731 | 11.67° C | 35% | 1022.9 hPa | 0 mm | - | - | - |
| 1777537942 | 11.11° C | 38% | 1022.9 hPa | 0 mm | - | - | - |
| 1777536137 | 11.11° C | 37% | 1022.6 hPa | 0 mm | - | - | - |
| 1777534332 | 10° C | 41% | 1022.7 hPa | 0 mm | - | - | - |
* Rain since midnight (hover to see other rain measurements)
** Current wind speed in m/s (hover to see current wind gust speed)